createdAt,value
2023-03-01T00:08:07.312Z,70.43
2023-03-01T00:16:34.783Z,70.53
2023-03-01T00:24:58.164Z,70.51
2023-03-01T00:33:21.225Z,70.47
2023-03-01T00:41:44.512Z,70.39
2023-03-01T00:50:08.094Z,70.30
2023-03-01T00:58:34.960Z,70.54
2023-03-01T01:06:58.059Z,70.42
2023-03-01T01:15:21.751Z,70.45
2023-03-01T01:23:46.380Z,70.38
2023-03-01T01:32:09.992Z,70.35
2023-03-01T01:40:33.155Z,70.46
2023-03-01T01:49:01.673Z,70.46
2023-03-01T01:57:50.358Z,70.60
2023-03-01T02:06:17.960Z,70.64
2023-03-01T02:14:41.027Z,70.58
2023-03-01T02:23:04.345Z,70.51
2023-03-01T02:31:42.657Z,70.57
2023-03-01T02:40:16.443Z,70.57
2023-03-01T02:48:48.187Z,70.43
2023-03-01T02:57:12.184Z,70.83
2023-03-01T03:05:36.197Z,70.77
2023-03-01T03:13:59.678Z,70.74
2023-03-01T03:22:23.036Z,70.74
2023-03-01T03:30:46.208Z,70.68
2023-03-01T03:39:09.163Z,70.80
2023-03-01T03:47:32.156Z,70.79
2023-03-01T03:55:55.826Z,70.70
2023-03-01T04:04:20.070Z,70.60
2023-03-01T04:12:46.126Z,70.78
2023-03-01T04:21:09.332Z,70.74
2023-03-01T04:29:32.361Z,70.71
2023-03-01T04:37:55.376Z,70.89
2023-03-01T04:46:21.241Z,70.80
2023-03-01T04:54:45.648Z,70.75
2023-03-01T05:03:09.599Z,70.72
2023-03-01T05:11:36.824Z,70.94
2023-03-01T05:20:00.911Z,71.05
2023-03-01T05:28:23.949Z,71.01
2023-03-01T05:36:46.971Z,70.87
2023-03-01T05:45:10.708Z,71.05
2023-03-01T05:53:33.745Z,71.30
2023-03-01T06:01:56.803Z,71.21
2023-03-01T06:10:22.150Z,71.35
2023-03-01T06:18:45.178Z,71.49
2023-03-01T06:27:08.309Z,71.61
2023-03-01T06:35:32.305Z,71.64
2023-03-01T06:43:55.631Z,71.74
2023-03-01T06:52:19.664Z,72.05
2023-03-01T07:00:44.398Z,72.05
2023-03-01T07:09:07.463Z,72.06
2023-03-01T07:17:31.313Z,72.23
2023-03-01T07:25:56.620Z,72.68
2023-03-01T07:34:19.673Z,72.88
2023-03-01T07:42:42.904Z,72.88
2023-03-01T07:51:08.698Z,73.40
2023-03-01T07:59:32.621Z,73.66
2023-03-01T08:07:55.913Z,73.94
2023-03-01T08:16:19.070Z,74.33
2023-03-01T08:24:42.161Z,74.24
2023-03-01T08:33:05.270Z,73.92
2023-03-01T08:41:29.140Z,73.87
2023-03-01T08:49:52.215Z,74.06
2023-03-01T08:58:15.187Z,74.05
2023-03-01T09:06:38.633Z,73.86
2023-03-01T09:15:01.722Z,73.92
2023-03-01T09:23:24.681Z,74.08
2023-03-01T09:31:47.738Z,74.12
2023-03-01T09:40:16.896Z,74.07
2023-03-01T09:48:46.144Z,73.89
2023-03-01T09:57:09.088Z,73.86
2023-03-01T10:05:42.517Z,73.76
2023-03-01T10:14:36.081Z,73.94
2023-03-01T10:22:59.057Z,73.89
2023-03-01T10:31:30.561Z,74.03
2023-03-01T10:40:02.689Z,73.88
2023-03-01T10:48:29.237Z,73.80
2023-03-01T10:56:57.720Z,74.03
2023-03-01T11:05:27.012Z,73.89
2023-03-01T11:13:59.904Z,73.87
2023-03-01T11:22:23.702Z,74.00
2023-03-01T11:31:10.485Z,74.10
2023-03-01T11:39:33.631Z,74.04
2023-03-01T11:48:08.357Z,74.19
2023-03-01T11:56:47.596Z,74.14
2023-03-01T12:05:46.483Z,74.11
2023-03-01T12:14:28.068Z,74.34
2023-03-01T12:22:53.965Z,74.32
2023-03-01T12:31:54.858Z,74.15
2023-03-01T12:40:47.776Z,74.12
2023-03-01T12:49:27.548Z,74.22
2023-03-01T12:57:59.228Z,74.17
2023-03-01T13:06:49.630Z,74.11
2023-03-01T13:15:25.362Z,74.21
2023-03-01T13:23:49.600Z,74.30
2023-03-01T13:32:34.549Z,74.19
2023-03-01T13:41:01.741Z,74.03
2023-03-01T13:49:45.989Z,74.08
2023-03-01T13:58:18.304Z,74.06
2023-03-01T14:06:41.356Z,73.99
2023-03-01T14:15:28.016Z,73.91
2023-03-01T14:23:51.147Z,73.80
2023-03-01T14:32:21.846Z,73.86
2023-03-01T14:40:45.018Z,73.63
2023-03-01T14:49:23.020Z,73.46
2023-03-01T14:57:52.663Z,73.50
2023-03-01T15:06:19.486Z,73.21
2023-03-01T15:14:52.145Z,73.24
2023-03-01T15:23:28.004Z,73.42
2023-03-01T15:32:05.189Z,73.29
2023-03-01T15:40:34.457Z,73.07
2023-03-01T15:49:04.252Z,73.11
2023-03-01T15:57:27.558Z,73.05
2023-03-01T16:05:53.211Z,73.03
2023-03-01T16:14:17.560Z,72.83
2023-03-01T16:22:42.083Z,72.78
2023-03-01T16:31:05.675Z,73.00
2023-03-01T16:39:29.698Z,72.58
2023-03-01T16:47:55.854Z,72.54
2023-03-01T16:56:20.082Z,72.66
2023-03-01T17:04:43.197Z,72.36
2023-03-01T17:13:06.437Z,72.30
2023-03-01T17:21:29.710Z,72.18
2023-03-01T17:29:53.013Z,72.02
2023-03-01T17:38:17.313Z,72.11
2023-03-01T17:46:42.811Z,72.02
2023-03-01T17:55:07.048Z,71.85
2023-03-01T18:03:30.104Z,71.81
2023-03-01T18:11:53.988Z,71.56
2023-03-01T18:20:18.232Z,71.59
2023-03-01T18:28:42.247Z,71.72
2023-03-01T18:37:09.639Z,71.60
2023-03-01T18:45:33.033Z,71.32
2023-03-01T18:54:00.816Z,71.43
2023-03-01T19:02:23.991Z,71.44
2023-03-01T19:10:47.059Z,71.40
2023-03-01T19:19:10.315Z,71.57
2023-03-01T19:27:33.632Z,71.67
2023-03-01T19:35:57.423Z,71.59
2023-03-01T19:44:25.944Z,71.53
2023-03-01T19:52:49.156Z,71.37
2023-03-01T20:01:15.699Z,71.29
2023-03-01T20:09:39.694Z,71.29
2023-03-01T20:18:03.001Z,71.25
2023-03-01T20:26:26.717Z,71.29
2023-03-01T20:34:49.980Z,71.22
2023-03-01T20:43:12.953Z,71.36
2023-03-01T20:51:36.035Z,71.39
2023-03-01T20:59:59.074Z,71.26
2023-03-01T21:08:22.238Z,71.44
2023-03-01T21:16:48.289Z,71.42
2023-03-01T21:25:11.870Z,71.22
2023-03-01T21:33:38.905Z,71.24
2023-03-01T21:42:04.234Z,71.23
2023-03-01T21:50:27.520Z,71.31
2023-03-01T21:58:50.538Z,71.21
2023-03-01T22:07:15.483Z,71.36
2023-03-01T22:15:43.380Z,71.43
2023-03-01T22:24:07.535Z,71.30
2023-03-01T22:32:30.864Z,71.28
2023-03-01T22:41:02.820Z,71.33
2023-03-01T22:49:26.039Z,71.34
2023-03-01T22:57:52.576Z,71.60
2023-03-01T23:06:17.284Z,71.69
2023-03-01T23:14:41.730Z,71.65
2023-03-01T23:23:04.825Z,71.58
2023-03-01T23:31:30.181Z,71.73
2023-03-01T23:39:53.286Z,71.97
2023-03-01T23:48:19.882Z,71.96
2023-03-01T23:56:44.289Z,72.00
